Fordtran, Texas
Current Conditions -  °F | °C
As of 5:51 AM on Friday 28 Nov 2014 (Local Time) from KVCT Reporting Station
Clear Clear  
Wind Chill: 46°   Ceiling: Unl
Heat Index: 48°   Visibility: 10mi
Dew Point: 45°   Wind: 5mph
Humidity: 89%   Direction: 80°E
Pressure: 30.32"   Gusts: NA
Location:  29.2421°N, 97.0692°W
Report Text: KVCT 281151Z AUTO 08004KT 10SM CLR 09/07 A3032 RMK AO2 SLP268 T00890072 10089 20078 56007
Loading
Personal Weather Stations






























Interactive Weather Map New forecast layout! Learn more

10-Day Weather Forecast

Advertisements
Track Severe Weather on mobile